NWWT weather

Oua Tom Airport
La Foa, New Caledonia

Public forecast

Using degrees Celsius for public forecast. Weather courtesy of forecast.io.

METAR (pilot weather report)

Closest report is La Tontouta International Airport, 22.8 nm (42.3 km) ESE. Retrieved 2019/02/17 11:30 UTC (0 seconds ago):

NWWW 171130Z AUTO 01009KT 9999 FEW064/// SCT110/// BKN160/// ///CB 28/23 Q1002 BECMG SCT040

TAF (pilot weather forecast)

Closest forecast is La Tontouta International Airport, 22.8 nm (42.3 km) ESE. Retrieved 2019/02/17 06:00 UTC (5 hours ago):

TAF NWWW 170500Z 1706/1806 08012KT 9999 SCT040 BKN050 BKN100 PROB30 TEMPO 1706/1718 4000 SHRA BKN008 SCT018TCU PROB40 TEMPO 1718/1806 09015G25KT 1200 TSRA BKN010 SCT015CB SCT020TCU